createdAt,value
2019-03-05T00:00:35.565Z,99342.11
2019-03-05T00:03:06.904Z,99350.80
2019-03-05T00:05:38.481Z,99341.36
2019-03-05T00:08:09.907Z,99342.94
2019-03-05T00:10:41.564Z,99342.71
2019-03-05T00:13:13.114Z,99353.94
2019-03-05T00:15:45.337Z,99333.44
2019-03-05T00:18:16.836Z,99325.86
2019-03-05T00:20:48.387Z,99322.93
2019-03-05T00:23:51.384Z,99325.36
2019-03-05T00:26:26.317Z,99320.62
2019-03-05T00:29:09.952Z,99343.59
2019-03-05T00:31:43.968Z,99322.45
2019-03-05T00:34:39.889Z,99322.37
2019-03-05T00:37:20.454Z,99312.41
2019-03-05T00:39:55.282Z,99313.84
2019-03-05T00:42:58.828Z,99317.57
2019-03-05T00:45:54.503Z,99324.23
2019-03-05T00:48:59.541Z,99312.21
2019-03-05T00:51:39.944Z,99309.54
2019-03-05T00:54:32.361Z,99317.48
2019-03-05T00:57:25.151Z,99313.80
2019-03-05T01:00:12.239Z,99311.16
2019-03-05T01:02:58.987Z,99315.78
2019-03-05T01:05:39.747Z,99317.73
2019-03-05T01:08:11.349Z,99332.38
2019-03-05T01:10:43.211Z,99325.92
2019-03-05T01:13:14.465Z,99324.25
2019-03-05T01:15:46.532Z,99320.02
2019-03-05T01:18:17.974Z,99316.56
2019-03-05T01:20:49.433Z,99312.31
2019-03-05T01:23:20.689Z,99319.42
2019-03-05T01:25:52.122Z,99314.91
2019-03-05T01:28:23.679Z,99318.81
2019-03-05T01:30:56.608Z,99317.74
2019-03-05T01:33:28.696Z,99314.56
2019-03-05T01:36:04.244Z,99320.92
2019-03-05T01:38:37.117Z,99326.25
2019-03-05T01:41:09.105Z,99316.56
2019-03-05T01:43:40.271Z,99315.91
2019-03-05T01:46:12.075Z,99320.85
2019-03-05T01:48:43.373Z,99312.25
2019-03-05T01:51:15.135Z,99298.99
2019-03-05T01:53:46.786Z,99305.19
2019-03-05T01:56:18.443Z,99296.64
2019-03-05T01:58:49.997Z,99291.30
2019-03-05T02:01:21.754Z,99301.41
2019-03-05T02:03:53.414Z,99279.88
2019-03-05T02:06:24.921Z,99286.58
2019-03-05T02:08:56.249Z,99273.74
2019-03-05T02:11:27.514Z,99272.59
2019-03-05T02:13:58.839Z,99268.27
2019-03-05T02:16:30.105Z,99269.52
2019-03-05T02:19:27.619Z,99260.93
2019-03-05T02:21:59.290Z,99268.27
2019-03-05T02:24:50.337Z,99260.00
2019-03-05T02:27:45.798Z,99260.68
2019-03-05T02:30:35.492Z,99262.21
2019-03-05T02:33:10.016Z,99266.78
2019-03-05T02:35:52.719Z,99259.34
2019-03-05T02:38:25.242Z,99254.56
2019-03-05T02:41:02.186Z,99259.05
2019-03-05T02:44:06.957Z,99260.27
2019-03-05T02:46:47.666Z,99250.95
2019-03-05T02:49:25.173Z,99254.73
2019-03-05T02:52:17.641Z,99236.88
2019-03-05T02:55:17.944Z,99241.78
2019-03-05T02:57:48.280Z,99240.35
2019-03-05T03:00:21.210Z,99236.66
2019-03-05T03:02:54.259Z,99241.08
2019-03-05T03:05:27.239Z,99239.84
2019-03-05T03:07:57.925Z,99225.51
2019-03-05T03:10:29.256Z,99238.09
2019-03-05T03:13:00.546Z,99233.99
2019-03-05T03:15:31.834Z,99235.42
2019-03-05T03:18:03.120Z,99237.17
2019-03-05T03:20:34.412Z,99223.73
2019-03-05T03:23:06.239Z,99223.55
2019-03-05T03:25:37.439Z,99218.94
2019-03-05T03:28:08.602Z,99218.24
2019-03-05T03:30:39.869Z,99216.46
2019-03-05T03:33:11.238Z,99223.68
2019-03-05T03:35:42.892Z,99213.41
2019-03-05T03:38:14.551Z,99209.77
2019-03-05T03:40:46.632Z,99217.83
2019-03-05T03:43:18.281Z,99216.49
2019-03-05T03:45:49.887Z,99207.67
2019-03-05T03:48:21.787Z,99206.17
2019-03-05T03:50:53.444Z,99205.36
2019-03-05T03:53:25.022Z,99211.84
2019-03-05T03:55:56.654Z,99217.47
2019-03-05T03:58:28.414Z,99216.23
2019-03-05T04:01:00.072Z,99227.83
2019-03-05T04:03:31.834Z,99226.70
2019-03-05T04:06:03.480Z,99220.91
2019-03-05T04:08:34.938Z,99218.18
2019-03-05T04:11:06.237Z,99216.36
2019-03-05T04:13:37.420Z,99206.34
2019-03-05T04:16:08.721Z,99210.19
2019-03-05T04:18:40.204Z,99212.23
2019-03-05T04:21:11.559Z,99196.55
2019-03-05T04:23:43.869Z,99201.30
2019-03-05T04:26:15.172Z,99198.31
2019-03-05T04:28:46.537Z,99188.97
2019-03-05T04:31:18.608Z,99194.94
2019-03-05T04:33:49.905Z,99201.37
2019-03-05T04:36:21.177Z,99204.02
2019-03-05T04:38:52.400Z,99206.22
2019-03-05T04:41:23.778Z,99202.19
2019-03-05T04:43:55.099Z,99199.25
2019-03-05T04:46:34.126Z,99206.73
2019-03-05T04:49:16.172Z,99212.38
2019-03-05T04:51:49.269Z,99210.23
2019-03-05T04:54:21.891Z,99201.37
2019-03-05T04:56:53.098Z,99203.86
2019-03-05T04:59:24.360Z,99198.02
2019-03-05T05:01:55.892Z,99194.31
2019-03-05T05:04:27.552Z,99188.41
2019-03-05T05:06:59.207Z,99193.48
2019-03-05T05:09:30.857Z,99206.28
2019-03-05T05:12:02.621Z,99207.23
2019-03-05T05:14:34.267Z,99209.55
2019-03-05T05:17:06.027Z,99199.30
2019-03-05T05:19:37.586Z,99202.50
2019-03-05T05:22:09.241Z,99208.16
2019-03-05T05:24:40.851Z,99184.02
2019-03-05T05:27:12.243Z,99183.33
2019-03-05T05:29:43.901Z,99178.19
2019-03-05T05:32:15.582Z,99173.26
2019-03-05T05:34:46.786Z,99156.66
2019-03-05T05:37:17.999Z,99150.56
2019-03-05T05:40:21.457Z,99166.38
2019-03-05T05:42:54.024Z,99155.80
2019-03-05T05:45:38.016Z,99134.63
2019-03-05T05:48:09.465Z,99140.79
2019-03-05T05:50:40.989Z,99153.17
2019-03-05T05:53:12.280Z,99147.56
2019-03-05T05:55:43.647Z,99137.50
2019-03-05T05:58:14.874Z,99142.11
2019-03-05T06:00:47.707Z,99134.49
2019-03-05T06:03:18.264Z,99128.42
2019-03-05T06:05:49.763Z,99125.96
2019-03-05T06:08:21.069Z,99131.80
2019-03-05T06:10:53.097Z,99128.97
2019-03-05T06:13:24.627Z,99116.91
2019-03-05T06:15:55.912Z,99125.36
2019-03-05T06:18:27.250Z,99113.62
2019-03-05T06:20:58.504Z,99113.23
2019-03-05T06:23:29.824Z,99135.03
2019-03-05T06:26:01.392Z,99120.34
2019-03-05T06:28:33.021Z,99117.31
2019-03-05T06:31:04.171Z,99117.98
2019-03-05T06:33:35.591Z,99106.27
2019-03-05T06:36:06.927Z,99101.85
2019-03-05T06:38:38.291Z,99112.53
2019-03-05T06:41:10.589Z,99111.58
2019-03-05T06:43:41.874Z,99091.71
2019-03-05T06:46:13.453Z,99084.02
2019-03-05T06:48:44.775Z,99097.88
2019-03-05T06:51:17.160Z,99106.91
2019-03-05T06:53:48.422Z,99085.77
2019-03-05T06:56:19.678Z,99068.77
2019-03-05T06:58:52.480Z,99076.52
2019-03-05T07:01:25.804Z,99056.87
2019-03-05T07:03:57.082Z,99048.27
2019-03-05T07:06:49.356Z,99057.54
2019-03-05T07:09:42.388Z,99054.53
2019-03-05T07:12:19.775Z,99050.64
2019-03-05T07:15:18.487Z,99039.84
2019-03-05T07:18:01.867Z,99034.70
2019-03-05T07:21:03.523Z,99036.25
2019-03-05T07:23:47.068Z,99038.79
2019-03-05T07:26:17.730Z,99038.58
2019-03-05T07:28:48.921Z,99027.92
2019-03-05T07:31:20.232Z,99013.27
2019-03-05T07:33:53.081Z,99016.52
2019-03-05T07:36:24.424Z,99010.09
2019-03-05T07:38:55.775Z,99009.64
2019-03-05T07:41:27.106Z,99010.83
2019-03-05T07:43:58.695Z,99008.36
2019-03-05T07:46:30.080Z,99012.66
2019-03-05T07:49:01.430Z,99011.78
2019-03-05T07:51:32.965Z,98999.27
2019-03-05T07:54:04.566Z,98996.17
2019-03-05T07:56:36.339Z,98995.15
2019-03-05T07:59:08.106Z,98980.13
2019-03-05T08:01:39.542Z,98986.64
2019-03-05T08:04:11.132Z,99007.67
2019-03-05T08:06:43.462Z,99000.05
2019-03-05T08:09:35.096Z,98991.03
2019-03-05T08:12:30.923Z,98981.97
2019-03-05T08:15:08.501Z,98985.53
2019-03-05T08:17:40.070Z,98987.60
2019-03-05T08:20:13.045Z,98979.11
2019-03-05T08:22:44.805Z,98980.83
2019-03-05T08:25:16.770Z,98992.78
2019-03-05T08:27:50.677Z,98986.68
2019-03-05T08:30:22.229Z,98980.95
2019-03-05T08:32:53.926Z,98970.09
2019-03-05T08:35:25.359Z,98966.13
2019-03-05T08:37:56.812Z,98948.64
2019-03-05T08:40:28.472Z,98957.58
2019-03-05T08:42:59.799Z,98955.09
2019-03-05T08:45:31.717Z,98938.18
2019-03-05T08:48:03.038Z,98941.52
2019-03-05T08:50:34.388Z,98932.91
2019-03-05T08:53:07.486Z,98928.53
2019-03-05T08:55:38.411Z,98932.33
2019-03-05T08:58:09.828Z,98947.00
2019-03-05T09:00:41.512Z,98952.36
2019-03-05T09:03:14.272Z,98938.18
2019-03-05T09:05:46.344Z,98943.55
2019-03-05T09:08:21.137Z,98931.78
2019-03-05T09:10:53.273Z,98932.91
2019-03-05T09:13:32.753Z,98918.79
2019-03-05T09:15:57.975Z,98924.95
2019-03-05T09:18:29.739Z,98911.13
2019-03-05T09:21:01.612Z,98924.00
2019-03-05T09:23:33.501Z,98922.35
2019-03-05T09:26:04.813Z,98906.77
2019-03-05T09:28:36.110Z,98901.78
2019-03-05T09:31:07.663Z,98890.97
2019-03-05T09:33:39.071Z,98889.86
2019-03-05T09:36:10.819Z,98866.52
2019-03-05T09:38:42.477Z,98890.11
2019-03-05T09:41:14.119Z,98892.48
2019-03-05T09:43:45.790Z,98870.32
2019-03-05T09:46:19.588Z,98886.41
2019-03-05T09:48:50.939Z,98870.36
2019-03-05T09:51:22.802Z,98860.78
2019-03-05T09:53:55.310Z,98863.98
2019-03-05T09:56:28.261Z,98856.30
2019-03-05T09:59:00.072Z,98842.89
2019-03-05T10:01:32.714Z,98842.37
2019-03-05T10:04:04.800Z,98844.09
2019-03-05T10:06:36.531Z,98836.44
2019-03-05T10:09:08.131Z,98825.55
2019-03-05T10:11:40.592Z,98814.98
2019-03-05T10:14:11.700Z,98825.48
2019-03-05T10:16:43.351Z,98810.98
2019-03-05T10:19:15.111Z,98800.68
2019-03-05T10:21:46.810Z,98796.77
2019-03-05T10:24:18.222Z,98798.62
2019-03-05T10:26:50.280Z,98788.73
2019-03-05T10:29:21.940Z,98771.22
2019-03-05T10:31:53.774Z,98770.73
2019-03-05T10:34:25.163Z,98773.47
2019-03-05T10:36:56.810Z,98752.45
2019-03-05T10:39:30.829Z,98745.07
2019-03-05T10:42:00.973Z,98740.89
2019-03-05T10:44:32.075Z,98750.13
2019-03-05T10:47:03.726Z,98735.28
2019-03-05T10:49:35.233Z,98718.97
2019-03-05T10:52:10.026Z,98716.20
2019-03-05T10:54:41.914Z,98721.13
2019-03-05T10:57:13.549Z,98705.35
2019-03-05T10:59:45.393Z,98710.54
2019-03-05T11:02:17.351Z,98700.13
2019-03-05T11:04:49.021Z,98685.27
2019-03-05T11:07:20.366Z,98691.77
2019-03-05T11:09:53.252Z,98687.70
2019-03-05T11:12:25.113Z,98682.77
2019-03-05T11:14:56.943Z,98673.32
2019-03-05T11:17:28.431Z,98644.12
2019-03-05T11:20:00.003Z,98658.09
2019-03-05T11:22:31.668Z,98665.44
2019-03-05T11:25:04.231Z,98663.30
2019-03-05T11:27:37.268Z,98656.47
2019-03-05T11:30:12.370Z,98641.91
2019-03-05T11:32:44.201Z,98657.09
2019-03-05T11:35:17.881Z,98656.39
2019-03-05T11:37:49.566Z,98630.11
2019-03-05T11:40:21.481Z,98671.03
2019-03-05T11:42:53.066Z,98688.16
2019-03-05T11:45:26.376Z,98671.67
2019-03-05T11:47:57.714Z,98669.47
2019-03-05T11:50:29.367Z,98676.00
2019-03-05T11:53:00.718Z,98665.97
2019-03-05T11:55:32.589Z,98672.97
2019-03-05T11:58:04.288Z,98678.84
2019-03-05T12:00:55.380Z,98686.95
2019-03-05T12:03:27.007Z,98661.91
2019-03-05T12:05:59.673Z,98674.20
2019-03-05T12:08:31.344Z,98671.25
2019-03-05T12:11:03.216Z,98654.83
2019-03-05T12:13:35.296Z,98652.66
2019-03-05T12:16:07.012Z,98642.27
2019-03-05T12:18:39.094Z,98631.30
2019-03-05T12:21:10.736Z,98614.23
2019-03-05T12:23:46.674Z,98620.24
2019-03-05T12:26:15.415Z,98615.61
2019-03-05T12:28:47.174Z,98636.36
2019-03-05T12:31:19.474Z,98628.28
2019-03-05T12:33:50.866Z,98667.17
2019-03-05T12:36:22.759Z,98651.08
2019-03-05T12:38:54.347Z,98648.02
2019-03-05T12:41:25.732Z,98652.25
2019-03-05T12:43:57.520Z,98657.40
2019-03-05T12:46:28.837Z,98648.42
2019-03-05T12:49:00.486Z,98663.08
2019-03-05T12:51:32.462Z,98643.27
2019-03-05T12:54:04.026Z,98647.31
2019-03-05T12:56:35.764Z,98636.20
2019-03-05T12:59:07.419Z,98647.55
2019-03-05T13:01:38.859Z,98666.91
2019-03-05T13:04:10.549Z,98662.19
2019-03-05T13:06:42.126Z,98655.94
2019-03-05T13:09:17.724Z,98641.91
2019-03-05T13:11:50.962Z,98638.32
2019-03-05T13:14:22.636Z,98646.35
2019-03-05T13:16:55.218Z,98651.62
2019-03-05T13:19:26.628Z,98639.38
2019-03-05T13:21:58.370Z,98645.91
2019-03-05T13:24:30.144Z,98648.19
2019-03-05T13:27:01.993Z,98628.63
2019-03-05T13:29:33.665Z,98627.50
2019-03-05T13:32:05.225Z,98641.52
2019-03-05T13:34:36.615Z,98643.78
2019-03-05T13:37:08.007Z,98641.59
2019-03-05T13:39:39.486Z,98651.59
2019-03-05T13:42:10.919Z,98636.04
2019-03-05T13:44:43.677Z,98657.50
2019-03-05T13:47:15.443Z,98651.48
2019-03-05T13:49:58.860Z,98639.66
2019-03-05T13:52:50.392Z,98639.69
2019-03-05T13:55:31.067Z,98647.30
2019-03-05T13:58:33.229Z,98636.99
2019-03-05T14:01:06.149Z,98640.32
2019-03-05T14:03:40.649Z,98642.99
2019-03-05T14:06:33.491Z,98648.27
2019-03-05T14:09:13.521Z,98652.23
2019-03-05T14:11:47.108Z,98645.19
2019-03-05T14:14:26.761Z,98634.89
2019-03-05T14:17:15.186Z,98632.22
2019-03-05T14:19:47.008Z,98640.59
2019-03-05T14:22:18.794Z,98634.44
2019-03-05T14:24:58.252Z,98647.80
2019-03-05T14:27:23.822Z,98652.64
2019-03-05T14:29:55.579Z,98644.34
2019-03-05T14:32:27.352Z,98651.26
2019-03-05T14:35:00.942Z,98652.55
2019-03-05T14:37:32.894Z,98663.34
2019-03-05T14:40:22.868Z,98667.17
2019-03-05T14:42:39.599Z,98660.50
2019-03-05T14:45:20.472Z,98674.68
2019-03-05T14:47:55.136Z,98664.47
2019-03-05T14:50:26.541Z,98662.80
2019-03-05T14:52:58.413Z,98660.78
2019-03-05T14:55:30.173Z,98660.90
2019-03-05T14:58:01.816Z,98666.13
2019-03-05T15:00:33.569Z,98661.88
2019-03-05T15:03:05.390Z,98655.17
2019-03-05T15:05:37.185Z,98657.48
2019-03-05T15:08:08.628Z,98651.50
2019-03-05T15:10:40.125Z,98660.82
2019-03-05T15:13:17.095Z,98660.73
2019-03-05T15:15:45.161Z,98673.64
2019-03-05T15:18:17.132Z,98668.70
2019-03-05T15:20:48.887Z,98660.73
2019-03-05T15:23:20.661Z,98670.94
2019-03-05T15:25:52.384Z,98665.97
2019-03-05T15:28:24.237Z,98668.38
2019-03-05T15:30:55.949Z,98676.93
2019-03-05T15:33:27.687Z,98687.56
2019-03-05T15:35:59.507Z,98704.34
2019-03-05T15:38:31.816Z,98713.12
2019-03-05T15:41:03.486Z,98715.59
2019-03-05T15:43:35.169Z,98722.02
2019-03-05T15:46:06.729Z,98729.67
2019-03-05T15:48:38.234Z,98734.69
2019-03-05T15:51:09.621Z,98739.15
2019-03-05T15:53:41.160Z,98745.66
2019-03-05T15:56:12.569Z,98748.36
2019-03-05T15:58:43.861Z,98760.62
2019-03-05T16:01:22.054Z,98768.83
2019-03-05T16:03:48.558Z,98774.61
2019-03-05T16:06:20.270Z,98782.32
2019-03-05T16:08:52.071Z,98792.90
2019-03-05T16:11:23.636Z,98800.02
2019-03-05T16:13:56.512Z,98798.30
2019-03-05T16:16:28.672Z,98814.77
2019-03-05T16:19:00.536Z,98813.13
2019-03-05T16:21:32.390Z,98822.50
2019-03-05T16:24:04.351Z,98822.38
2019-03-05T16:26:36.119Z,98832.72
2019-03-05T16:29:10.834Z,98837.80
2019-03-05T16:31:51.214Z,98839.47
2019-03-05T16:34:24.908Z,98858.24
2019-03-05T16:37:05.681Z,98863.45
2019-03-05T16:39:41.016Z,98870.39
2019-03-05T16:42:24.868Z,98881.83
2019-03-05T16:45:14.754Z,98887.32
2019-03-05T16:48:00.445Z,98896.55
2019-03-05T16:50:42.936Z,98903.72
2019-03-05T16:53:20.633Z,98915.28
2019-03-05T16:56:00.080Z,98924.58
2019-03-05T16:58:49.440Z,98939.12
2019-03-05T17:01:28.465Z,98941.63
2019-03-05T17:04:01.684Z,98957.70
2019-03-05T17:06:51.961Z,98965.26
2019-03-05T17:09:37.038Z,98968.74
2019-03-05T17:12:08.687Z,98962.13
2019-03-05T17:14:40.302Z,98973.53
2019-03-05T17:17:11.919Z,98981.59
2019-03-05T17:19:43.855Z,98986.80
2019-03-05T17:22:15.407Z,98989.11
2019-03-05T17:24:47.174Z,98993.14
2019-03-05T17:27:18.814Z,98990.62
2019-03-05T17:29:50.486Z,98995.66
2019-03-05T17:32:23.072Z,99003.84
2019-03-05T17:34:54.332Z,99010.67
2019-03-05T17:37:25.616Z,99006.55
2019-03-05T17:39:57.025Z,99017.69
2019-03-05T17:42:28.328Z,99015.78
2019-03-05T17:44:59.569Z,99030.94
2019-03-05T17:47:31.251Z,99036.61
2019-03-05T17:50:02.915Z,99037.86
2019-03-05T17:52:34.984Z,99043.33
2019-03-05T17:55:10.105Z,99043.78
2019-03-05T17:57:42.381Z,99044.81
2019-03-05T18:00:29.416Z,99049.75
2019-03-05T18:03:01.272Z,99052.47
2019-03-05T18:05:33.321Z,99059.09
2019-03-05T18:08:04.982Z,99062.72
2019-03-05T18:10:36.633Z,99065.95
2019-03-05T18:13:08.291Z,99071.91
2019-03-05T18:15:39.837Z,99062.56
2019-03-05T18:18:11.397Z,99075.78
2019-03-05T18:20:43.169Z,99083.40
2019-03-05T18:23:14.922Z,99086.33
2019-03-05T18:25:46.567Z,99089.02
2019-03-05T18:28:18.122Z,99091.05
2019-03-05T18:30:49.772Z,99098.95
2019-03-05T18:33:22.560Z,99106.36
2019-03-05T18:35:54.227Z,99114.45
2019-03-05T18:38:26.079Z,99110.23
2019-03-05T18:40:57.756Z,99108.27
2019-03-05T18:43:29.401Z,99108.20
2019-03-05T18:46:00.948Z,99114.00
2019-03-05T18:48:32.805Z,99108.19
2019-03-05T18:51:04.568Z,99119.88
2019-03-05T18:53:35.806Z,99115.34
2019-03-05T18:56:07.362Z,99121.69
2019-03-05T18:58:39.022Z,99126.93
2019-03-05T19:01:10.464Z,99138.34
2019-03-05T19:03:41.800Z,99140.31
2019-03-05T19:06:13.475Z,99138.62
2019-03-05T19:08:45.129Z,99147.08
2019-03-05T19:11:16.683Z,99147.41
2019-03-05T19:13:49.977Z,99157.27
2019-03-05T19:16:21.630Z,99152.05
2019-03-05T19:18:53.218Z,99153.58
2019-03-05T19:21:24.844Z,99157.55
2019-03-05T19:23:56.912Z,99163.04
2019-03-05T19:26:28.670Z,99161.56
2019-03-05T19:29:00.223Z,99164.11
2019-03-05T19:31:31.672Z,99166.12
2019-03-05T19:34:03.427Z,99172.52
2019-03-05T19:36:35.082Z,99171.93
2019-03-05T19:39:06.954Z,99175.02
2019-03-05T19:41:39.930Z,99185.28
2019-03-05T19:44:11.490Z,99195.59
2019-03-05T19:46:43.174Z,99195.86
2019-03-05T19:49:15.104Z,99204.58
2019-03-05T19:51:46.551Z,99209.41
2019-03-05T19:54:19.137Z,99207.00
2019-03-05T19:56:50.786Z,99208.34
2019-03-05T19:59:22.571Z,99214.78
2019-03-05T20:01:54.210Z,99213.30
2019-03-05T20:04:27.601Z,99213.30
2019-03-05T20:07:02.637Z,99216.39
2019-03-05T20:09:34.289Z,99221.08
2019-03-05T20:12:05.956Z,99219.69
2019-03-05T20:14:37.603Z,99220.14
2019-03-05T20:17:09.257Z,99234.80
2019-03-05T20:19:40.819Z,99229.17
2019-03-05T20:22:12.677Z,99236.22
2019-03-05T20:24:44.465Z,99231.18
2019-03-05T20:27:16.482Z,99223.49
2019-03-05T20:29:47.845Z,99227.64
2019-03-05T20:32:19.510Z,99225.42
2019-03-05T20:34:51.054Z,99231.13
2019-03-05T20:37:22.705Z,99228.45
2019-03-05T20:39:54.372Z,99234.21
2019-03-05T20:42:26.021Z,99237.02
2019-03-05T20:44:57.581Z,99243.77
2019-03-05T20:47:29.214Z,99246.39
2019-03-05T20:50:00.483Z,99246.94
2019-03-05T20:52:31.838Z,99247.34
2019-03-05T20:55:04.204Z,99250.16
2019-03-05T20:57:35.969Z,99255.80
2019-03-05T21:00:10.692Z,99261.47
2019-03-05T21:02:42.653Z,99261.45
2019-03-05T21:05:14.313Z,99269.76
2019-03-05T21:07:45.844Z,99269.81
2019-03-05T21:10:18.236Z,99271.84
2019-03-05T21:12:49.898Z,99283.54
2019-03-05T21:15:21.544Z,99286.48
2019-03-05T21:17:54.736Z,99296.27
2019-03-05T21:20:25.971Z,99303.73
2019-03-05T21:22:57.252Z,99304.75
2019-03-05T21:25:29.613Z,99306.98
2019-03-05T21:28:01.148Z,99312.09
2019-03-05T21:30:32.812Z,99316.87
2019-03-05T21:33:04.468Z,99310.66
2019-03-05T21:35:36.126Z,99313.05
2019-03-05T21:38:07.783Z,99314.48
2019-03-05T21:40:39.435Z,99309.09
2019-03-05T21:43:11.088Z,99311.77
2019-03-05T21:45:48.370Z,99315.87
2019-03-05T21:48:20.646Z,99315.87
2019-03-05T21:50:52.410Z,99315.91
2019-03-05T21:53:24.161Z,99328.05
2019-03-05T21:55:55.828Z,99327.42
2019-03-05T21:58:27.374Z,99326.50
2019-03-05T22:00:59.131Z,99325.82
2019-03-05T22:03:30.888Z,99329.58
2019-03-05T22:06:02.442Z,99325.68
2019-03-05T22:08:34.200Z,99330.99
2019-03-05T22:11:05.858Z,99342.55
2019-03-05T22:13:37.415Z,99352.03
2019-03-05T22:16:08.976Z,99350.28
2019-03-05T22:18:40.924Z,99345.56
2019-03-05T22:21:12.176Z,99355.45
2019-03-05T22:23:43.932Z,99357.19
2019-03-05T22:26:15.587Z,99358.02
2019-03-05T22:28:47.152Z,99361.24
2019-03-05T22:31:18.697Z,99364.14
2019-03-05T22:33:50.355Z,99370.38
2019-03-05T22:36:22.212Z,99370.94
2019-03-05T22:38:53.869Z,99369.86
2019-03-05T22:41:27.072Z,99366.45
2019-03-05T22:43:58.199Z,99378.05
2019-03-05T22:46:29.958Z,99369.34
2019-03-05T22:49:01.415Z,99372.84
2019-03-05T22:51:33.065Z,99377.78
2019-03-05T22:54:04.619Z,99378.47
2019-03-05T22:56:36.276Z,99382.31
2019-03-05T22:59:07.727Z,99389.28
2019-03-05T23:01:39.487Z,99383.15
2019-03-05T23:04:11.346Z,99387.34
2019-03-05T23:06:43.309Z,99395.50
2019-03-05T23:09:16.396Z,99395.81
2019-03-05T23:11:48.054Z,99406.27
2019-03-05T23:14:19.709Z,99413.95
2019-03-05T23:16:51.570Z,99413.30
2019-03-05T23:19:23.128Z,99409.91
2019-03-05T23:21:54.883Z,99422.08
2019-03-05T23:24:26.542Z,99415.77
2019-03-05T23:27:00.760Z,99413.82
2019-03-05T23:29:33.946Z,99422.63
2019-03-05T23:32:05.809Z,99427.12
2019-03-05T23:34:37.572Z,99430.89
2019-03-05T23:37:09.242Z,99428.32
2019-03-05T23:39:40.983Z,99430.78
2019-03-05T23:42:12.643Z,99428.80
2019-03-05T23:44:43.883Z,99424.67
2019-03-05T23:47:15.432Z,99424.36
2019-03-05T23:49:47.093Z,99420.88
2019-03-05T23:52:19.059Z,99414.91
2019-03-05T23:54:50.920Z,99407.34
2019-03-05T23:57:22.466Z,99415.84
2019-03-05T23:59:55.148Z,99405.08
